UKDDHEGN

Guest
Details From UKDD - Dnipropetrovsk Intl
To HEGN - Hurghada Intl
Flight Number -
Tags Generated
Created
Modified
Stats Distance 1,275 nm / 2,361 km
Max Altitude 0 ft / 0 m
Waypoints 5
Social Downloads 2
Likes 0
Share VATSIM

Download

Looking for another format? Having issues loading an existing format? Contact us
Advertisement - Login to hide

Notes

Generated

Route

UKDD KOLIG ARH HGD HEGN

ID Type Via Altitude Latitude Longitude Leg Dist Tot Dist Heading (true) Name
O UKDD APT - 0 ft / 0 m 48.35722˚ 35.08126˚ - 0 nm - -
KOLIG FIX - 0 ft / 0 m 44.11806˚ 34.52013˚ 255 nm 255 nm 185° / 185° -
ARH VOR - 0 ft / 0 m 31.07300˚ 33.83186˚ 784 nm 1039 nm 183° / 182° EL ARISH VOR-DME
HGD VOR - 0 ft / 0 m 27.17776˚ 33.79639˚ 233 nm 1273 nm 180° / 180° HURGHADA VOR-DME
O HEGN APT - 0 ft / 0 m 27.19576˚ 33.79425˚ 1 nm 1274 nm 354° / 354° -

Altitude Profile

Advertisement - Login to hide

Weather


0- 5 10 15 20 25 30 35+ Temperature / ° C

Clouds and Precipitation
Forecast for 2017-12-15 06:00 UTC. Updated an hour ago

Ground ~20,000 ft ~40,000 ft Winds

UKDD

Details ICAO UKDD (DNK)
Name Dnipropetrovsk Intl
Region Ukraine
Timezone Europe/Kiev (UTC+2.0)
Stats Elevation 481 ft / 147 m (AMSL)
Location 48.357222° 35.100556°
Runways 1
Magnetic Variation 7.843° E

METAR

UKDD 150230Z 24005MPS 210V280 9999 OVC005 06/05 Q1010 R26/220356 BECMG 0200 FG VV001

Decode

TAF

TAF AMD TAF AMD UKDD 141848Z 1418/1518 21006MPS 0300 -DZ FG VV001 TEMPO 1418/1506 1500 -RA BR OVC004 BECMG 1506/1508 3100 BR BKN010 TX06/1512Z TN04/1503Z

Decode

Departure Runways

ID Width Length Bearing (true) Bearing (mag) Surface Threshold Offset Overrun Length
09 144 ft / 44 m 9,359 ft / 2,853 m 89.99° 82.15° Concrete 0 ft / 0 m 0 ft / 0 m
27 144 ft / 44 m 9,359 ft / 2,853 m 270.01° 262.17° Concrete 0 ft / 0 m 0 ft / 0 m

HEGN

Details ICAO HEGN (HRG)
Name HURGHADA INTL
Region Egypt
Timezone Africa/Cairo (UTC+2.0)
Stats Elevation 52 ft / 16 m (AMSL)
Location 27.178308° 33.799397°
Runways 1
Magnetic Variation 4.212° E

METAR

HEGN 150200Z 30010KT CAVOK 14/09 Q1017 NOSIG

Decode

TAF

Not found

Destination Runways

ID Width Length Bearing (true) Bearing (mag) Surface Threshold Offset Overrun Length
16 148 ft / 45 m 13,169 ft / 4,014 m 165.29° 161.08° Asphalt 985 ft / 300 m 0 ft / 0 m
34 148 ft / 45 m 13,169 ft / 4,014 m 345.29° 341.08° Asphalt 0 ft / 0 m 200 ft / 61 m

Approach Navaids

Runway Type Ident Frequency Range Bearing (true) Bearing (mag) Slope Elevation
34 Localiser HIL 110.30 MHz 18 nm / 33 km 347.43° 343.22° - 56 ft / 17 m (AMSL)
34 Glidescope HIL 110.30 MHz 10 nm / 19 km 345.29° 341.08° 3.00° 64 ft / 20 m (AMSL)
34 DME HIL 110.30 MHz 18 nm / 33 km - - - 30 ft / 9 m (AMSL)